sensor_id;sensor_type;location;lat;lon;timestamp;P1;durP1;ratioP1;P2;durP2;ratioP2
9248;SDS011;4660;41.768;26.198;2023-03-01T00:01:37;5.23;;;3.37;;
9248;SDS011;4660;41.768;26.198;2023-03-01T00:04:09;4.53;;;3.20;;
9248;SDS011;4660;41.768;26.198;2023-03-01T00:06:36;4.43;;;3.07;;
9248;SDS011;4660;41.768;26.198;2023-03-01T00:09:04;3.60;;;2.70;;
9248;SDS011;4660;41.768;26.198;2023-03-01T00:11:31;5.10;;;3.07;;
9248;SDS011;4660;41.768;26.198;2023-03-01T00:13:59;4.93;;;3.47;;
9248;SDS011;4660;41.768;26.198;2023-03-01T00:16:32;5.80;;;3.30;;
9248;SDS011;4660;41.768;26.198;2023-03-01T00:19:01;3.50;;;3.03;;
9248;SDS011;4660;41.768;26.198;2023-03-01T00:21:29;3.27;;;2.87;;
9248;SDS011;4660;41.768;26.198;2023-03-01T00:23:56;3.33;;;3.00;;
9248;SDS011;4660;41.768;26.198;2023-03-01T00:26:25;3.20;;;2.67;;
9248;SDS011;4660;41.768;26.198;2023-03-01T00:28:54;2.67;;;2.47;;
9248;SDS011;4660;41.768;26.198;2023-03-01T00:31:25;3.93;;;2.93;;
9248;SDS011;4660;41.768;26.198;2023-03-01T00:33:59;4.70;;;2.87;;
9248;SDS011;4660;41.768;26.198;2023-03-01T00:36:30;2.43;;;2.23;;
9248;SDS011;4660;41.768;26.198;2023-03-01T00:39:07;3.20;;;2.90;;
9248;SDS011;4660;41.768;26.198;2023-03-01T00:41:38;2.77;;;2.53;;
9248;SDS011;4660;41.768;26.198;2023-03-01T00:44:06;4.17;;;2.90;;
9248;SDS011;4660;41.768;26.198;2023-03-01T00:46:34;2.57;;;2.37;;
9248;SDS011;4660;41.768;26.198;2023-03-01T00:49:01;2.40;;;2.20;;
9248;SDS011;4660;41.768;26.198;2023-03-01T00:51:28;3.13;;;2.57;;
9248;SDS011;4660;41.768;26.198;2023-03-01T00:53:57;3.27;;;2.20;;
9248;SDS011;4660;41.768;26.198;2023-03-01T00:56:25;3.00;;;2.10;;
9248;SDS011;4660;41.768;26.198;2023-03-01T00:58:53;3.93;;;3.00;;
9248;SDS011;4660;41.768;26.198;2023-03-01T01:01:24;2.73;;;2.40;;
9248;SDS011;4660;41.768;26.198;2023-03-01T01:03:55;3.20;;;2.67;;
9248;SDS011;4660;41.768;26.198;2023-03-01T01:06:31;4.53;;;2.70;;
9248;SDS011;4660;41.768;26.198;2023-03-01T01:08:59;3.10;;;2.80;;
9248;SDS011;4660;41.768;26.198;2023-03-01T01:11:27;4.93;;;2.50;;
9248;SDS011;4660;41.768;26.198;2023-03-01T01:13:56;8.43;;;5.53;;
9248;SDS011;4660;41.768;26.198;2023-03-01T01:16:23;3.10;;;2.77;;
9248;SDS011;4660;41.768;26.198;2023-03-01T01:18:53;4.47;;;2.90;;
9248;SDS011;4660;41.768;26.198;2023-03-01T01:21:22;4.17;;;3.10;;
9248;SDS011;4660;41.768;26.198;2023-03-01T01:23:51;14.23;;;7.20;;
9248;SDS011;4660;41.768;26.198;2023-03-01T01:26:22;6.93;;;4.90;;
9248;SDS011;4660;41.768;26.198;2023-03-01T01:28:50;4.33;;;2.57;;
9248;SDS011;4660;41.768;26.198;2023-03-01T01:31:18;2.83;;;2.53;;
9248;SDS011;4660;41.768;26.198;2023-03-01T01:33:53;3.87;;;2.33;;
9248;SDS011;4660;41.768;26.198;2023-03-01T01:36:20;3.10;;;2.63;;
9248;SDS011;4660;41.768;26.198;2023-03-01T01:38:46;4.87;;;2.53;;
9248;SDS011;4660;41.768;26.198;2023-03-01T01:41:14;3.37;;;2.80;;
9248;SDS011;4660;41.768;26.198;2023-03-01T01:43:42;9.27;;;5.47;;
9248;SDS011;4660;41.768;26.198;2023-03-01T01:52:25;6.63;;;3.27;;
9248;SDS011;4660;41.768;26.198;2023-03-01T01:55:15;6.60;;;4.40;;
9248;SDS011;4660;41.768;26.198;2023-03-01T01:57:55;6.30;;;3.73;;
9248;SDS011;4660;41.768;26.198;2023-03-01T02:00:29;9.43;;;5.27;;
9248;SDS011;4660;41.768;26.198;2023-03-01T02:02:59;16.50;;;7.93;;
9248;SDS011;4660;41.768;26.198;2023-03-01T02:08:18;3.87;;;2.40;;
9248;SDS011;4660;41.768;26.198;2023-03-01T02:10:47;4.93;;;2.67;;
9248;SDS011;4660;41.768;26.198;2023-03-01T02:13:15;4.43;;;2.40;;
9248;SDS011;4660;41.768;26.198;2023-03-01T02:15:42;3.00;;;2.73;;
9248;SDS011;4660;41.768;26.198;2023-03-01T02:18:12;1.80;;;1.70;;
9248;SDS011;4660;41.768;26.198;2023-03-01T02:21:03;2.67;;;2.00;;
9248;SDS011;4660;41.768;26.198;2023-03-01T02:23:40;2.93;;;2.00;;
9248;SDS011;4660;41.768;26.198;2023-03-01T02:29:10;1.93;;;1.83;;
9248;SDS011;4660;41.768;26.198;2023-03-01T02:31:37;3.27;;;2.33;;
9248;SDS011;4660;41.768;26.198;2023-03-01T02:34:18;1.97;;;1.87;;
9248;SDS011;4660;41.768;26.198;2023-03-01T02:37:02;2.53;;;2.33;;
9248;SDS011;4660;41.768;26.198;2023-03-01T02:39:42;2.97;;;2.50;;
9248;SDS011;4660;41.768;26.198;2023-03-01T02:42:15;2.30;;;2.10;;
9248;SDS011;4660;41.768;26.198;2023-03-01T02:44:48;1.90;;;1.80;;
9248;SDS011;4660;41.768;26.198;2023-03-01T02:47:16;2.10;;;2.00;;
9248;SDS011;4660;41.768;26.198;2023-03-01T02:49:43;3.33;;;2.57;;
9248;SDS011;4660;41.768;26.198;2023-03-01T02:55:13;2.60;;;1.90;;
9248;SDS011;4660;41.768;26.198;2023-03-01T02:57:45;2.53;;;1.83;;
9248;SDS011;4660;41.768;26.198;2023-03-01T03:00:20;2.47;;;1.80;;
9248;SDS011;4660;41.768;26.198;2023-03-01T03:02:52;3.20;;;1.57;;
9248;SDS011;4660;41.768;26.198;2023-03-01T03:05:23;3.87;;;1.87;;
9248;SDS011;4660;41.768;26.198;2023-03-01T03:07:53;2.10;;;1.90;;
9248;SDS011;4660;41.768;26.198;2023-03-01T03:10:30;2.30;;;2.10;;
9248;SDS011;4660;41.768;26.198;2023-03-01T03:13:03;2.50;;;2.30;;
9248;SDS011;4660;41.768;26.198;2023-03-01T03:15:35;4.27;;;2.47;;
9248;SDS011;4660;41.768;26.198;2023-03-01T03:18:03;3.73;;;3.10;;
9248;SDS011;4660;41.768;26.198;2023-03-01T03:20:33;4.57;;;3.20;;
9248;SDS011;4660;41.768;26.198;2023-03-01T03:22:59;4.83;;;3.33;;
9248;SDS011;4660;41.768;26.198;2023-03-01T03:25:28;3.80;;;3.33;;
9248;SDS011;4660;41.768;26.198;2023-03-01T03:28:05;3.70;;;3.40;;
9248;SDS011;4660;41.768;26.198;2023-03-01T03:30:35;5.90;;;4.43;;
9248;SDS011;4660;41.768;26.198;2023-03-01T03:33:06;6.17;;;4.10;;
9248;SDS011;4660;41.768;26.198;2023-03-01T03:35:37;5.40;;;4.07;;
9248;SDS011;4660;41.768;26.198;2023-03-01T03:38:06;6.10;;;4.03;;
9248;SDS011;4660;41.768;26.198;2023-03-01T03:40:51;4.93;;;4.50;;
9248;SDS011;4660;41.768;26.198;2023-03-01T03:43:22;5.90;;;4.20;;
9248;SDS011;4660;41.768;26.198;2023-03-01T03:45:50;5.83;;;3.83;;
9248;SDS011;4660;41.768;26.198;2023-03-01T03:48:20;6.77;;;4.13;;
9248;SDS011;4660;41.768;26.198;2023-03-01T03:50:51;6.03;;;4.20;;
9248;SDS011;4660;41.768;26.198;2023-03-01T03:53:18;5.60;;;3.70;;
9248;SDS011;4660;41.768;26.198;2023-03-01T03:55:46;5.33;;;4.03;;
9248;SDS011;4660;41.768;26.198;2023-03-01T03:58:32;6.73;;;4.40;;
9248;SDS011;4660;41.768;26.198;2023-03-01T04:00:58;4.27;;;3.87;;
9248;SDS011;4660;41.768;26.198;2023-03-01T04:03:28;5.23;;;3.77;;
9248;SDS011;4660;41.768;26.198;2023-03-01T04:06:01;5.97;;;4.27;;
9248;SDS011;4660;41.768;26.198;2023-03-01T04:08:32;10.47;;;6.80;;
9248;SDS011;4660;41.768;26.198;2023-03-01T04:11:00;6.83;;;4.10;;
9248;SDS011;4660;41.768;26.198;2023-03-01T04:13:47;9.50;;;4.50;;
9248;SDS011;4660;41.768;26.198;2023-03-01T04:16:14;5.27;;;4.57;;
9248;SDS011;4660;41.768;26.198;2023-03-01T04:18:41;7.40;;;4.37;;
9248;SDS011;4660;41.768;26.198;2023-03-01T04:21:11;5.80;;;4.53;;
9248;SDS011;4660;41.768;26.198;2023-03-01T04:23:39;6.33;;;4.30;;
9248;SDS011;4660;41.768;26.198;2023-03-01T04:26:07;4.40;;;3.63;;
9248;SDS011;4660;41.768;26.198;2023-03-01T04:28:38;5.70;;;3.87;;
9248;SDS011;4660;41.768;26.198;2023-03-01T04:31:11;5.27;;;4.07;;
9248;SDS011;4660;41.768;26.198;2023-03-01T04:33:45;4.33;;;3.93;;
9248;SDS011;4660;41.768;26.198;2023-03-01T04:36:22;5.20;;;3.70;;
9248;SDS011;4660;41.768;26.198;2023-03-01T04:38:54;5.20;;;4.20;;
9248;SDS011;4660;41.768;26.198;2023-03-01T04:41:23;5.33;;;4.83;;
9248;SDS011;4660;41.768;26.198;2023-03-01T04:43:53;5.80;;;4.20;;
9248;SDS011;4660;41.768;26.198;2023-03-01T04:46:21;7.93;;;5.47;;
9248;SDS011;4660;41.768;26.198;2023-03-01T04:48:48;6.13;;;4.20;;
9248;SDS011;4660;41.768;26.198;2023-03-01T04:51:15;5.33;;;3.97;;
9248;SDS011;4660;41.768;26.198;2023-03-01T04:53:43;5.17;;;3.60;;
9248;SDS011;4660;41.768;26.198;2023-03-01T04:56:11;5.20;;;4.50;;
9248;SDS011;4660;41.768;26.198;2023-03-01T04:58:39;6.10;;;4.70;;
9248;SDS011;4660;41.768;26.198;2023-03-01T05:01:15;4.93;;;4.23;;
9248;SDS011;4660;41.768;26.198;2023-03-01T05:03:48;6.80;;;5.00;;
9248;SDS011;4660;41.768;26.198;2023-03-01T05:06:30;5.77;;;4.53;;
9248;SDS011;4660;41.768;26.198;2023-03-01T05:09:01;6.23;;;4.10;;
9248;SDS011;4660;41.768;26.198;2023-03-01T05:11:31;5.93;;;4.30;;
9248;SDS011;4660;41.768;26.198;2023-03-01T05:14:03;4.57;;;3.90;;
9248;SDS011;4660;41.768;26.198;2023-03-01T05:16:30;4.87;;;4.17;;
9248;SDS011;4660;41.768;26.198;2023-03-01T05:18:58;5.70;;;4.20;;
9248;SDS011;4660;41.768;26.198;2023-03-01T05:21:25;5.87;;;3.53;;
9248;SDS011;4660;41.768;26.198;2023-03-01T05:23:51;3.80;;;3.30;;
9248;SDS011;4660;41.768;26.198;2023-03-01T05:26:17;5.00;;;3.70;;
9248;SDS011;4660;41.768;26.198;2023-03-01T05:28:50;5.37;;;4.63;;
9248;SDS011;4660;41.768;26.198;2023-03-01T05:31:17;4.20;;;3.80;;
9248;SDS011;4660;41.768;26.198;2023-03-01T05:33:43;8.20;;;3.97;;
9248;SDS011;4660;41.768;26.198;2023-03-01T05:36:09;5.47;;;3.57;;
9248;SDS011;4660;41.768;26.198;2023-03-01T05:38:36;8.40;;;5.50;;
9248;SDS011;4660;41.768;26.198;2023-03-01T05:41:03;7.50;;;4.10;;
9248;SDS011;4660;41.768;26.198;2023-03-01T05:43:31;8.70;;;4.67;;
9248;SDS011;4660;41.768;26.198;2023-03-01T05:46:01;5.83;;;4.00;;
9248;SDS011;4660;41.768;26.198;2023-03-01T05:48:27;6.17;;;4.23;;
9248;SDS011;4660;41.768;26.198;2023-03-01T05:50:54;11.20;;;6.07;;
9248;SDS011;4660;41.768;26.198;2023-03-01T05:53:21;6.13;;;4.07;;
9248;SDS011;4660;41.768;26.198;2023-03-01T05:55:48;5.23;;;3.70;;
9248;SDS011;4660;41.768;26.198;2023-03-01T05:58:17;7.47;;;3.63;;
9248;SDS011;4660;41.768;26.198;2023-03-01T06:00:46;4.10;;;3.60;;
9248;SDS011;4660;41.768;26.198;2023-03-01T06:03:15;4.17;;;3.60;;
9248;SDS011;4660;41.768;26.198;2023-03-01T06:05:44;5.23;;;3.57;;
9248;SDS011;4660;41.768;26.198;2023-03-01T06:08:11;6.37;;;3.43;;
9248;SDS011;4660;41.768;26.198;2023-03-01T06:10:40;4.00;;;3.60;;
9248;SDS011;4660;41.768;26.198;2023-03-01T06:13:06;3.60;;;3.23;;
9248;SDS011;4660;41.768;26.198;2023-03-01T06:15:35;6.70;;;5.17;;
9248;SDS011;4660;41.768;26.198;2023-03-01T06:18:02;7.07;;;4.43;;
9248;SDS011;4660;41.768;26.198;2023-03-01T06:20:29;6.20;;;3.47;;
9248;SDS011;4660;41.768;26.198;2023-03-01T06:22:56;4.57;;;4.17;;
9248;SDS011;4660;41.768;26.198;2023-03-01T06:25:24;4.87;;;3.37;;
9248;SDS011;4660;41.768;26.198;2023-03-01T06:27:58;3.57;;;2.93;;
9248;SDS011;4660;41.768;26.198;2023-03-01T06:30:25;8.37;;;4.30;;
9248;SDS011;4660;41.768;26.198;2023-03-01T06:32:53;5.10;;;3.90;;
9248;SDS011;4660;41.768;26.198;2023-03-01T06:35:27;21.30;;;11.37;;
9248;SDS011;4660;41.768;26.198;2023-03-01T06:37:58;6.07;;;4.10;;
9248;SDS011;4660;41.768;26.198;2023-03-01T06:40:33;5.47;;;3.37;;
9248;SDS011;4660;41.768;26.198;2023-03-01T06:43:00;6.30;;;3.10;;
9248;SDS011;4660;41.768;26.198;2023-03-01T06:45:30;3.07;;;2.70;;
9248;SDS011;4660;41.768;26.198;2023-03-01T06:48:03;3.40;;;2.50;;
9248;SDS011;4660;41.768;26.198;2023-03-01T06:50:33;8.30;;;5.07;;
9248;SDS011;4660;41.768;26.198;2023-03-01T06:53:00;6.60;;;3.17;;
9248;SDS011;4660;41.768;26.198;2023-03-01T06:55:28;6.07;;;3.60;;
9248;SDS011;4660;41.768;26.198;2023-03-01T06:57:56;5.40;;;3.20;;
9248;SDS011;4660;41.768;26.198;2023-03-01T07:00:26;6.00;;;3.50;;
9248;SDS011;4660;41.768;26.198;2023-03-01T07:03:01;8.63;;;5.97;;
9248;SDS011;4660;41.768;26.198;2023-03-01T07:05:29;8.73;;;6.57;;
9248;SDS011;4660;41.768;26.198;2023-03-01T07:07:56;6.00;;;3.73;;
9248;SDS011;4660;41.768;26.198;2023-03-01T07:10:26;9.73;;;4.90;;
9248;SDS011;4660;41.768;26.198;2023-03-01T07:12:56;6.30;;;3.07;;
9248;SDS011;4660;41.768;26.198;2023-03-01T07:15:24;6.87;;;3.67;;
9248;SDS011;4660;41.768;26.198;2023-03-01T07:17:53;3.87;;;3.47;;
9248;SDS011;4660;41.768;26.198;2023-03-01T07:20:20;2.43;;;2.23;;
9248;SDS011;4660;41.768;26.198;2023-03-01T07:22:51;8.83;;;4.83;;
9248;SDS011;4660;41.768;26.198;2023-03-01T07:25:25;5.33;;;3.30;;
9248;SDS011;4660;41.768;26.198;2023-03-01T07:27:53;4.77;;;3.13;;
9248;SDS011;4660;41.768;26.198;2023-03-01T07:30:23;6.80;;;3.77;;
9248;SDS011;4660;41.768;26.198;2023-03-01T07:32:54;4.17;;;2.77;;
9248;SDS011;4660;41.768;26.198;2023-03-01T07:35:29;4.60;;;2.90;;
9248;SDS011;4660;41.768;26.198;2023-03-01T07:37:56;3.30;;;2.47;;
9248;SDS011;4660;41.768;26.198;2023-03-01T07:40:22;7.30;;;2.73;;
9248;SDS011;4660;41.768;26.198;2023-03-01T07:42:49;5.60;;;2.87;;
9248;SDS011;4660;41.768;26.198;2023-03-01T07:45:16;3.20;;;2.90;;
9248;SDS011;4660;41.768;26.198;2023-03-01T07:47:43;8.13;;;5.93;;
9248;SDS011;4660;41.768;26.198;2023-03-01T07:50:09;7.63;;;5.07;;
9248;SDS011;4660;41.768;26.198;2023-03-01T07:52:40;8.23;;;3.53;;
9248;SDS011;4660;41.768;26.198;2023-03-01T07:55:07;8.07;;;3.77;;
9248;SDS011;4660;41.768;26.198;2023-03-01T07:57:37;9.27;;;5.60;;
9248;SDS011;4660;41.768;26.198;2023-03-01T08:00:05;12.40;;;6.13;;
9248;SDS011;4660;41.768;26.198;2023-03-01T08:02:33;4.67;;;3.50;;
9248;SDS011;4660;41.768;26.198;2023-03-01T08:05:03;12.93;;;6.33;;
9248;SDS011;4660;41.768;26.198;2023-03-01T08:07:30;5.50;;;3.20;;
9248;SDS011;4660;41.768;26.198;2023-03-01T08:09:57;5.77;;;4.00;;
9248;SDS011;4660;41.768;26.198;2023-03-01T08:12:24;4.90;;;3.37;;
9248;SDS011;4660;41.768;26.198;2023-03-01T08:14:51;5.13;;;3.00;;
9248;SDS011;4660;41.768;26.198;2023-03-01T08:17:18;6.67;;;4.10;;
9248;SDS011;4660;41.768;26.198;2023-03-01T08:19:46;5.07;;;3.13;;
9248;SDS011;4660;41.768;26.198;2023-03-01T08:22:13;4.13;;;3.00;;
9248;SDS011;4660;41.768;26.198;2023-03-01T08:24:40;7.57;;;4.00;;
9248;SDS011;4660;41.768;26.198;2023-03-01T08:27:07;6.63;;;2.87;;
9248;SDS011;4660;41.768;26.198;2023-03-01T08:29:34;4.23;;;2.77;;
9248;SDS011;4660;41.768;26.198;2023-03-01T08:32:00;6.57;;;3.07;;
9248;SDS011;4660;41.768;26.198;2023-03-01T08:34:26;4.83;;;2.33;;
9248;SDS011;4660;41.768;26.198;2023-03-01T08:36:53;2.97;;;2.40;;
9248;SDS011;4660;41.768;26.198;2023-03-01T08:39:20;5.03;;;2.13;;
9248;SDS011;4660;41.768;26.198;2023-03-01T08:41:47;6.67;;;2.50;;
9248;SDS011;4660;41.768;26.198;2023-03-01T08:44:14;2.57;;;1.87;;
9248;SDS011;4660;41.768;26.198;2023-03-01T08:46:46;5.57;;;2.40;;
9248;SDS011;4660;41.768;26.198;2023-03-01T08:49:14;6.43;;;2.40;;
9248;SDS011;4660;41.768;26.198;2023-03-01T08:51:43;3.70;;;2.50;;
9248;SDS011;4660;41.768;26.198;2023-03-01T08:54:13;4.73;;;2.43;;
9248;SDS011;4660;41.768;26.198;2023-03-01T08:56:41;2.60;;;2.30;;
9248;SDS011;4660;41.768;26.198;2023-03-01T08:59:10;5.73;;;3.00;;
9248;SDS011;4660;41.768;26.198;2023-03-01T09:01:41;2.40;;;2.13;;
9248;SDS011;4660;41.768;26.198;2023-03-01T09:04:12;6.27;;;2.33;;
9248;SDS011;4660;41.768;26.198;2023-03-01T09:06:42;3.47;;;1.97;;
9248;SDS011;4660;41.768;26.198;2023-03-01T09:09:14;5.27;;;3.00;;
9248;SDS011;4660;41.768;26.198;2023-03-01T09:11:49;4.60;;;2.60;;
9248;SDS011;4660;41.768;26.198;2023-03-01T09:14:15;8.90;;;3.20;;
9248;SDS011;4660;41.768;26.198;2023-03-01T09:16:41;3.70;;;2.90;;
9248;SDS011;4660;41.768;26.198;2023-03-01T09:19:09;7.50;;;3.57;;
9248;SDS011;4660;41.768;26.198;2023-03-01T09:21:39;3.90;;;2.87;;
9248;SDS011;4660;41.768;26.198;2023-03-01T09:24:15;10.50;;;4.47;;
9248;SDS011;4660;41.768;26.198;2023-03-01T09:26:42;4.40;;;2.93;;
9248;SDS011;4660;41.768;26.198;2023-03-01T09:29:08;6.90;;;4.97;;
9248;SDS011;4660;41.768;26.198;2023-03-01T09:31:35;9.00;;;5.33;;
9248;SDS011;4660;41.768;26.198;2023-03-01T09:34:02;11.30;;;5.83;;
9248;SDS011;4660;41.768;26.198;2023-03-01T09:36:29;5.17;;;4.00;;
9248;SDS011;4660;41.768;26.198;2023-03-01T09:38:57;8.13;;;4.27;;
9248;SDS011;4660;41.768;26.198;2023-03-01T09:41:38;4.30;;;3.33;;
9248;SDS011;4660;41.768;26.198;2023-03-01T09:44:24;4.00;;;2.80;;
9248;SDS011;4660;41.768;26.198;2023-03-01T09:47:15;7.37;;;4.50;;
9248;SDS011;4660;41.768;26.198;2023-03-01T09:49:57;4.10;;;3.47;;
9248;SDS011;4660;41.768;26.198;2023-03-01T10:10:37;6.80;;;4.97;;
9248;SDS011;4660;41.768;26.198;2023-03-01T10:13:13;9.77;;;5.27;;
9248;SDS011;4660;41.768;26.198;2023-03-01T10:16:37;8.67;;;5.00;;
9248;SDS011;4660;41.768;26.198;2023-03-01T10:18:51;6.53;;;4.53;;
9248;SDS011;4660;41.768;26.198;2023-03-01T10:21:22;6.30;;;3.43;;
9248;SDS011;4660;41.768;26.198;2023-03-01T10:23:53;5.80;;;3.40;;
9248;SDS011;4660;41.768;26.198;2023-03-01T10:29:10;4.23;;;3.83;;
9248;SDS011;4660;41.768;26.198;2023-03-01T10:31:51;12.23;;;6.97;;
9248;SDS011;4660;41.768;26.198;2023-03-01T10:34:27;8.93;;;5.20;;
9248;SDS011;4660;41.768;26.198;2023-03-01T10:37:01;6.10;;;4.00;;
9248;SDS011;4660;41.768;26.198;2023-03-01T10:40:20;9.00;;;3.27;;
9248;SDS011;4660;41.768;26.198;2023-03-01T10:42:48;7.57;;;3.50;;
9248;SDS011;4660;41.768;26.198;2023-03-01T10:45:34;4.00;;;3.17;;
9248;SDS011;4660;41.768;26.198;2023-03-01T10:50:43;7.43;;;3.60;;
9248;SDS011;4660;41.768;26.198;2023-03-01T10:53:31;6.17;;;3.60;;
9248;SDS011;4660;41.768;26.198;2023-03-01T10:56:13;3.03;;;2.67;;
9248;SDS011;4660;41.768;26.198;2023-03-01T10:58:41;6.20;;;3.50;;
9248;SDS011;4660;41.768;26.198;2023-03-01T11:01:27;4.37;;;2.60;;
9248;SDS011;4660;41.768;26.198;2023-03-01T11:06:36;4.33;;;2.93;;
9248;SDS011;4660;41.768;26.198;2023-03-01T11:09:22;3.37;;;1.97;;
9248;SDS011;4660;41.768;26.198;2023-03-01T11:12:15;4.13;;;2.53;;
9248;SDS011;4660;41.768;26.198;2023-03-01T11:14:55;8.63;;;3.67;;
9248;SDS011;4660;41.768;26.198;2023-03-01T11:17:31;6.93;;;3.67;;
9248;SDS011;4660;41.768;26.198;2023-03-01T11:20:39;5.63;;;2.80;;
9248;SDS011;4660;41.768;26.198;2023-03-01T11:23:08;6.73;;;3.40;;
9248;SDS011;4660;41.768;26.198;2023-03-01T11:25:40;7.43;;;4.23;;
9248;SDS011;4660;41.768;26.198;2023-03-01T11:28:12;5.77;;;3.87;;
9248;SDS011;4660;41.768;26.198;2023-03-01T11:30:53;4.80;;;3.17;;
9248;SDS011;4660;41.768;26.198;2023-03-01T11:33:41;2.97;;;2.40;;
9248;SDS011;4660;41.768;26.198;2023-03-01T11:39:32;6.30;;;3.27;;
9248;SDS011;4660;41.768;26.198;2023-03-01T11:42:15;4.53;;;2.80;;
9248;SDS011;4660;41.768;26.198;2023-03-01T11:44:50;5.97;;;3.03;;
9248;SDS011;4660;41.768;26.198;2023-03-01T11:47:38;4.43;;;2.23;;
9248;SDS011;4660;41.768;26.198;2023-03-01T11:50:46;4.40;;;2.97;;
9248;SDS011;4660;41.768;26.198;2023-03-01T12:23:02;3.50;;;2.80;;
9248;SDS011;4660;41.768;26.198;2023-03-01T12:37:46;4.37;;;2.70;;
9248;SDS011;4660;41.768;26.198;2023-03-01T12:43:44;3.90;;;2.83;;
9248;SDS011;4660;41.768;26.198;2023-03-01T12:49:41;5.63;;;4.00;;
9248;SDS011;4660;41.768;26.198;2023-03-01T12:52:40;5.47;;;4.30;;
9248;SDS011;4660;41.768;26.198;2023-03-01T13:13:24;7.13;;;5.00;;
9248;SDS011;4660;41.768;26.198;2023-03-01T13:15:53;6.90;;;5.50;;
9248;SDS011;4660;41.768;26.198;2023-03-01T13:21:01;7.53;;;4.40;;
9248;SDS011;4660;41.768;26.198;2023-03-01T13:23:35;5.43;;;4.57;;
9248;SDS011;4660;41.768;26.198;2023-03-01T13:26:13;5.33;;;4.23;;
9248;SDS011;4660;41.768;26.198;2023-03-01T13:33:45;7.73;;;4.37;;
9248;SDS011;4660;41.768;26.198;2023-03-01T13:38:59;7.93;;;6.10;;
9248;SDS011;4660;41.768;26.198;2023-03-01T13:41:55;6.57;;;4.97;;
9248;SDS011;4660;41.768;26.198;2023-03-01T13:44:31;7.83;;;5.13;;
9248;SDS011;4660;41.768;26.198;2023-03-01T13:47:16;5.77;;;4.60;;
9248;SDS011;4660;41.768;26.198;2023-03-01T13:49:47;7.57;;;4.87;;
9248;SDS011;4660;41.768;26.198;2023-03-01T13:58:31;8.43;;;6.20;;
9248;SDS011;4660;41.768;26.198;2023-03-01T14:01:03;6.93;;;6.10;;
9248;SDS011;4660;41.768;26.198;2023-03-01T14:03:40;8.57;;;6.73;;
9248;SDS011;4660;41.768;26.198;2023-03-01T14:06:15;7.33;;;5.87;;
9248;SDS011;4660;41.768;26.198;2023-03-01T14:08:47;10.13;;;6.63;;
9248;SDS011;4660;41.768;26.198;2023-03-01T14:20:12;10.17;;;5.83;;
9248;SDS011;4660;41.768;26.198;2023-03-01T14:22:43;12.40;;;7.23;;
9248;SDS011;4660;41.768;26.198;2023-03-01T14:25:33;9.23;;;7.70;;
9248;SDS011;4660;41.768;26.198;2023-03-01T14:28:20;9.27;;;6.63;;
9248;SDS011;4660;41.768;26.198;2023-03-01T14:30:57;6.27;;;5.57;;
9248;SDS011;4660;41.768;26.198;2023-03-01T14:33:35;12.90;;;7.43;;
9248;SDS011;4660;41.768;26.198;2023-03-01T14:36:10;10.50;;;7.87;;
9248;SDS011;4660;41.768;26.198;2023-03-01T14:38:42;10.10;;;7.47;;
9248;SDS011;4660;41.768;26.198;2023-03-01T14:41:19;9.90;;;6.87;;
9248;SDS011;4660;41.768;26.198;2023-03-01T14:43:57;10.10;;;6.67;;
9248;SDS011;4660;41.768;26.198;2023-03-01T14:46:42;8.50;;;6.60;;
9248;SDS011;4660;41.768;26.198;2023-03-01T14:49:19;11.77;;;8.37;;
9248;SDS011;4660;41.768;26.198;2023-03-01T14:54:54;22.23;;;11.10;;
9248;SDS011;4660;41.768;26.198;2023-03-01T14:57:23;14.83;;;9.70;;
9248;SDS011;4660;41.768;26.198;2023-03-01T14:59:52;10.10;;;6.93;;
9248;SDS011;4660;41.768;26.198;2023-03-01T15:02:21;7.30;;;6.53;;
9248;SDS011;4660;41.768;26.198;2023-03-01T15:04:51;10.93;;;8.13;;
9248;SDS011;4660;41.768;26.198;2023-03-01T15:07:23;13.33;;;9.30;;
9248;SDS011;4660;41.768;26.198;2023-03-01T15:10:12;15.60;;;9.63;;
9248;SDS011;4660;41.768;26.198;2023-03-01T15:12:47;12.53;;;8.87;;
9248;SDS011;4660;41.768;26.198;2023-03-01T15:17:58;11.97;;;7.00;;
9248;SDS011;4660;41.768;26.198;2023-03-01T15:20:50;11.27;;;6.87;;
9248;SDS011;4660;41.768;26.198;2023-03-01T15:23:26;9.10;;;6.93;;
9248;SDS011;4660;41.768;26.198;2023-03-01T15:25:58;15.43;;;8.33;;
9248;SDS011;4660;41.768;26.198;2023-03-01T15:28:33;11.10;;;8.00;;
9248;SDS011;4660;41.768;26.198;2023-03-01T15:31:43;20.07;;;8.20;;
9248;SDS011;4660;41.768;26.198;2023-03-01T15:34:08;9.17;;;7.07;;
9248;SDS011;4660;41.768;26.198;2023-03-01T15:36:56;8.83;;;7.33;;
9248;SDS011;4660;41.768;26.198;2023-03-01T15:39:30;8.20;;;6.50;;
9248;SDS011;4660;41.768;26.198;2023-03-01T15:42:53;10.37;;;7.40;;
9248;SDS011;4660;41.768;26.198;2023-03-01T15:45:25;12.83;;;8.27;;
9248;SDS011;4660;41.768;26.198;2023-03-01T15:50:56;13.07;;;7.17;;
9248;SDS011;4660;41.768;26.198;2023-03-01T15:53:28;13.77;;;10.27;;
9248;SDS011;4660;41.768;26.198;2023-03-01T15:55:54;10.23;;;7.90;;
9248;SDS011;4660;41.768;26.198;2023-03-01T15:58:22;11.80;;;8.90;;
9248;SDS011;4660;41.768;26.198;2023-03-01T16:00:50;18.77;;;11.20;;
9248;SDS011;4660;41.768;26.198;2023-03-01T16:03:22;21.27;;;13.50;;
9248;SDS011;4660;41.768;26.198;2023-03-01T16:05:50;15.43;;;11.53;;
9248;SDS011;4660;41.768;26.198;2023-03-01T16:08:18;22.10;;;15.40;;
9248;SDS011;4660;41.768;26.198;2023-03-01T16:10:45;25.70;;;16.53;;
9248;SDS011;4660;41.768;26.198;2023-03-01T16:13:16;18.60;;;13.30;;
9248;SDS011;4660;41.768;26.198;2023-03-01T16:15:44;16.27;;;11.33;;
9248;SDS011;4660;41.768;26.198;2023-03-01T16:18:11;10.67;;;7.77;;
9248;SDS011;4660;41.768;26.198;2023-03-01T16:20:38;11.73;;;8.63;;
9248;SDS011;4660;41.768;26.198;2023-03-01T16:23:07;19.07;;;12.30;;
9248;SDS011;4660;41.768;26.198;2023-03-01T16:25:45;16.00;;;8.97;;
9248;SDS011;4660;41.768;26.198;2023-03-01T16:28:37;14.70;;;9.13;;
9248;SDS011;4660;41.768;26.198;2023-03-01T16:31:05;18.70;;;11.87;;
9248;SDS011;4660;41.768;26.198;2023-03-01T16:33:36;12.67;;;8.40;;
9248;SDS011;4660;41.768;26.198;2023-03-01T16:36:08;11.00;;;7.93;;
9248;SDS011;4660;41.768;26.198;2023-03-01T16:38:37;13.73;;;9.90;;
9248;SDS011;4660;41.768;26.198;2023-03-01T16:41:05;10.13;;;7.80;;
9248;SDS011;4660;41.768;26.198;2023-03-01T16:43:34;14.23;;;9.73;;
9248;SDS011;4660;41.768;26.198;2023-03-01T16:46:01;16.43;;;11.27;;
9248;SDS011;4660;41.768;26.198;2023-03-01T16:48:39;12.57;;;8.10;;
9248;SDS011;4660;41.768;26.198;2023-03-01T16:51:05;14.30;;;10.13;;
9248;SDS011;4660;41.768;26.198;2023-03-01T16:53:34;8.27;;;6.80;;
9248;SDS011;4660;41.768;26.198;2023-03-01T16:56:06;18.63;;;9.87;;
9248;SDS011;4660;41.768;26.198;2023-03-01T16:58:35;11.63;;;8.50;;
9248;SDS011;4660;41.768;26.198;2023-03-01T17:01:14;7.43;;;6.53;;
9248;SDS011;4660;41.768;26.198;2023-03-01T17:03:46;11.53;;;8.63;;
9248;SDS011;4660;41.768;26.198;2023-03-01T17:06:16;11.83;;;8.83;;
9248;SDS011;4660;41.768;26.198;2023-03-01T17:08:46;12.43;;;8.67;;
9248;SDS011;4660;41.768;26.198;2023-03-01T17:11:15;13.83;;;10.50;;
9248;SDS011;4660;41.768;26.198;2023-03-01T17:13:44;12.83;;;8.00;;
9248;SDS011;4660;41.768;26.198;2023-03-01T17:16:13;11.67;;;8.77;;
9248;SDS011;4660;41.768;26.198;2023-03-01T17:18:43;12.60;;;8.33;;
9248;SDS011;4660;41.768;26.198;2023-03-01T17:21:10;12.90;;;9.10;;
9248;SDS011;4660;41.768;26.198;2023-03-01T17:23:39;12.43;;;9.27;;
9248;SDS011;4660;41.768;26.198;2023-03-01T17:26:15;15.23;;;10.23;;
9248;SDS011;4660;41.768;26.198;2023-03-01T17:28:42;11.77;;;8.10;;
9248;SDS011;4660;41.768;26.198;2023-03-01T17:31:09;10.50;;;7.67;;
9248;SDS011;4660;41.768;26.198;2023-03-01T17:33:38;15.20;;;10.87;;
9248;SDS011;4660;41.768;26.198;2023-03-01T17:36:07;17.93;;;11.07;;
9248;SDS011;4660;41.768;26.198;2023-03-01T17:38:32;36.43;;;18.60;;
9248;SDS011;4660;41.768;26.198;2023-03-01T17:40:59;36.00;;;17.30;;
9248;SDS011;4660;41.768;26.198;2023-03-01T17:43:27;31.17;;;15.47;;
9248;SDS011;4660;41.768;26.198;2023-03-01T17:45:55;38.50;;;20.23;;
9248;SDS011;4660;41.768;26.198;2023-03-01T17:48:23;31.10;;;15.87;;
9248;SDS011;4660;41.768;26.198;2023-03-01T17:50:53;20.77;;;9.87;;
9248;SDS011;4660;41.768;26.198;2023-03-01T17:53:20;15.20;;;8.90;;